createdAt,value
2023-03-07T00:02:02.785Z,8.40
2023-03-07T00:04:30.187Z,8.30
2023-03-07T00:06:57.710Z,8.20
2023-03-07T00:09:26.291Z,8.20
2023-03-07T00:11:53.880Z,8.20
2023-03-07T00:14:21.355Z,8.20
2023-03-07T00:16:51.630Z,8.20
2023-03-07T00:19:19.090Z,8.10
2023-03-07T00:21:46.533Z,8.10
2023-03-07T00:24:14.029Z,8.10
2023-03-07T00:26:41.516Z,8.10
2023-03-07T00:29:10.379Z,8.00
2023-03-07T00:31:38.046Z,7.90
2023-03-07T00:34:05.660Z,7.90
2023-03-07T00:36:33.220Z,7.90
2023-03-07T00:39:00.605Z,7.90
2023-03-07T00:41:29.342Z,7.90
2023-03-07T00:43:56.840Z,7.80
2023-03-07T00:46:25.962Z,7.70
2023-03-07T00:48:54.517Z,7.70
2023-03-07T00:51:23.515Z,7.80
2023-03-07T00:53:51.407Z,7.80
2023-03-07T00:56:23.066Z,7.70
2023-03-07T00:58:51.626Z,7.70
2023-03-07T01:01:23.373Z,7.70
2023-03-07T01:03:53.944Z,7.60
2023-03-07T01:06:24.464Z,7.60
2023-03-07T01:08:54.071Z,7.50
2023-03-07T01:11:21.617Z,7.40
2023-03-07T01:13:49.102Z,7.40
2023-03-07T01:16:19.809Z,7.30
2023-03-07T01:19:08.526Z,7.20
2023-03-07T01:21:39.276Z,7.20
2023-03-07T01:24:08.050Z,7.20
2023-03-07T01:26:35.782Z,7.20
2023-03-07T01:29:05.729Z,7.20
2023-03-07T01:31:38.402Z,7.10
2023-03-07T01:34:07.231Z,7.10
2023-03-07T01:36:36.960Z,7.00
2023-03-07T01:39:14.659Z,6.90
2023-03-07T01:41:56.264Z,6.90
2023-03-07T01:44:27.791Z,6.90
2023-03-07T01:47:00.528Z,7.00
2023-03-07T01:49:45.611Z,7.00
2023-03-07T01:52:32.611Z,6.90
2023-03-07T01:55:11.836Z,6.90
2023-03-07T01:57:43.589Z,6.90
2023-03-07T02:00:18.807Z,6.90
2023-03-07T02:02:49.640Z,6.80
2023-03-07T02:05:28.097Z,6.80
2023-03-07T02:07:59.052Z,6.80
2023-03-07T02:10:30.749Z,6.80
2023-03-07T02:12:58.193Z,6.80
2023-03-07T02:15:25.805Z,6.70
2023-03-07T02:17:53.844Z,6.60
2023-03-07T02:20:56.271Z,6.60
2023-03-07T02:23:24.344Z,6.50
2023-03-07T02:25:58.248Z,6.50
2023-03-07T02:28:27.180Z,6.60
2023-03-07T02:31:00.861Z,6.60
2023-03-07T02:33:32.027Z,6.70
2023-03-07T02:36:08.207Z,6.70
2023-03-07T02:38:40.950Z,6.70
2023-03-07T02:41:12.113Z,6.70
2023-03-07T02:43:39.809Z,6.70
2023-03-07T02:46:08.223Z,6.70
2023-03-07T02:48:35.678Z,6.70
2023-03-07T02:51:03.706Z,6.70
2023-03-07T02:53:31.359Z,6.60
2023-03-07T02:55:58.762Z,6.60
2023-03-07T02:58:26.506Z,6.60
2023-03-07T03:00:53.907Z,6.50
2023-03-07T03:03:21.472Z,6.50
2023-03-07T03:05:49.093Z,6.40
2023-03-07T03:08:16.568Z,6.40
2023-03-07T03:10:44.180Z,6.40
2023-03-07T03:13:12.817Z,6.30
2023-03-07T03:15:42.319Z,6.30
2023-03-07T03:18:09.787Z,6.20
2023-03-07T03:20:39.901Z,6.20
2023-03-07T03:23:07.319Z,6.20
2023-03-07T03:25:35.903Z,6.10
2023-03-07T03:28:04.469Z,6.10
2023-03-07T03:30:35.771Z,6.00
2023-03-07T03:33:04.143Z,6.00
2023-03-07T03:35:33.656Z,6.10
2023-03-07T03:38:01.967Z,6.10
2023-03-07T03:40:29.581Z,6.10
2023-03-07T03:42:57.236Z,6.20
2023-03-07T03:45:26.407Z,6.20
2023-03-07T03:47:54.224Z,6.20
2023-03-07T03:50:21.887Z,6.20
2023-03-07T03:52:49.371Z,6.10
2023-03-07T03:55:16.934Z,6.10
2023-03-07T03:57:44.380Z,6.00
2023-03-07T04:00:15.895Z,6.00
2023-03-07T04:02:44.051Z,5.90
2023-03-07T04:05:15.539Z,5.90
2023-03-07T04:07:43.013Z,5.90
2023-03-07T04:10:11.236Z,5.80
2023-03-07T04:12:39.530Z,5.80
2023-03-07T04:15:07.769Z,5.90
2023-03-07T04:17:36.167Z,5.90
2023-03-07T04:20:05.137Z,5.90
2023-03-07T04:22:33.673Z,5.90
2023-03-07T04:25:01.124Z,5.90
2023-03-07T04:27:28.663Z,5.90
2023-03-07T04:29:56.307Z,5.80
2023-03-07T04:32:23.865Z,5.80
2023-03-07T04:34:51.385Z,5.80
2023-03-07T04:37:18.801Z,5.70
2023-03-07T04:39:46.276Z,5.70
2023-03-07T04:42:14.185Z,5.70
2023-03-07T04:44:41.609Z,5.60
2023-03-07T04:47:09.027Z,5.50
2023-03-07T04:49:37.381Z,5.60
2023-03-07T04:52:06.539Z,5.60
2023-03-07T04:54:34.085Z,5.50
2023-03-07T04:57:04.068Z,5.40
2023-03-07T04:59:32.163Z,5.40
2023-03-07T05:01:59.758Z,5.40
2023-03-07T05:04:28.302Z,5.50
2023-03-07T05:06:55.994Z,5.40
2023-03-07T05:09:23.593Z,5.60
2023-03-07T05:11:53.537Z,5.60
2023-03-07T05:14:21.423Z,5.60
2023-03-07T05:16:48.906Z,5.50
2023-03-07T05:19:16.906Z,5.50
2023-03-07T05:21:44.659Z,5.60
2023-03-07T05:24:12.918Z,5.60
2023-03-07T05:26:40.822Z,5.50
2023-03-07T05:29:08.339Z,5.50
2023-03-07T05:31:36.417Z,5.50
2023-03-07T05:34:06.062Z,5.50
2023-03-07T05:36:33.765Z,5.40
2023-03-07T05:39:01.741Z,5.40
2023-03-07T05:41:29.343Z,5.50
2023-03-07T05:43:58.265Z,5.60
2023-03-07T05:46:26.218Z,5.60
2023-03-07T05:48:53.864Z,5.70
2023-03-07T05:51:21.726Z,5.60
2023-03-07T05:53:49.680Z,5.60
2023-03-07T05:56:17.568Z,5.60
2023-03-07T05:58:45.103Z,5.70
2023-03-07T06:01:13.081Z,5.70
2023-03-07T06:03:40.769Z,5.70
2023-03-07T06:06:08.606Z,5.80
2023-03-07T06:08:36.058Z,5.90
2023-03-07T06:11:03.763Z,5.90
2023-03-07T06:13:31.547Z,6.00
2023-03-07T06:15:59.805Z,6.10
2023-03-07T06:18:27.312Z,6.10
2023-03-07T06:21:03.735Z,6.10
2023-03-07T06:23:37.536Z,6.20
2023-03-07T06:26:10.426Z,6.10
2023-03-07T06:28:39.706Z,6.10
2023-03-07T06:31:11.308Z,6.00
2023-03-07T06:33:39.350Z,6.10
2023-03-07T06:36:12.806Z,6.20
2023-03-07T06:38:42.257Z,6.30
2023-03-07T06:41:10.194Z,6.50
2023-03-07T06:43:38.469Z,6.60
2023-03-07T06:46:07.515Z,6.70
2023-03-07T06:48:39.643Z,6.90
2023-03-07T06:51:11.130Z,7.00
2023-03-07T06:53:41.240Z,7.20
2023-03-07T06:56:09.021Z,7.30
2023-03-07T06:58:37.217Z,7.80
2023-03-07T07:01:04.992Z,8.50
2023-03-07T07:03:35.212Z,9.20
2023-03-07T07:06:03.720Z,9.90
2023-03-07T07:08:31.700Z,10.30
2023-03-07T07:10:59.627Z,10.40
2023-03-07T07:13:27.871Z,10.70
2023-03-07T07:15:55.447Z,10.80
2023-03-07T07:18:24.608Z,10.80
2023-03-07T07:20:56.312Z,10.50
2023-03-07T07:23:26.465Z,10.60
2023-03-07T07:25:54.546Z,11.20
2023-03-07T07:28:22.378Z,12.10
2023-03-07T07:30:50.131Z,12.90
2023-03-07T07:33:18.069Z,13.60
2023-03-07T07:35:49.246Z,13.80
2023-03-07T07:38:16.757Z,13.70
2023-03-07T07:40:45.058Z,13.60
2023-03-07T07:43:17.556Z,13.40
2023-03-07T07:45:55.996Z,13.50
2023-03-07T07:48:23.438Z,13.80
2023-03-07T07:50:50.938Z,14.00
2023-03-07T07:53:18.673Z,14.10
2023-03-07T07:55:48.912Z,14.00
2023-03-07T07:58:16.981Z,13.90
2023-03-07T08:00:46.139Z,14.20
2023-03-07T08:03:13.589Z,14.70
2023-03-07T08:05:45.564Z,14.90
2023-03-07T08:08:12.975Z,14.80
2023-03-07T08:10:43.113Z,15.20
2023-03-07T08:13:15.027Z,15.30
2023-03-07T08:15:42.891Z,15.50
2023-03-07T08:18:10.977Z,15.90
2023-03-07T08:20:39.635Z,16.30
2023-03-07T08:23:07.763Z,16.50
2023-03-07T08:25:35.405Z,16.50
2023-03-07T08:28:05.041Z,16.70
2023-03-07T08:30:35.179Z,16.50
2023-03-07T08:33:03.389Z,15.40
2023-03-07T08:35:31.706Z,14.30
2023-03-07T08:38:00.591Z,13.90
2023-03-07T08:40:29.967Z,14.40
2023-03-07T08:42:59.242Z,15.20
2023-03-07T08:45:26.918Z,15.50
2023-03-07T08:47:57.800Z,15.40
2023-03-07T08:50:28.141Z,15.40
2023-03-07T08:52:55.693Z,15.50
2023-03-07T08:55:23.373Z,15.20
2023-03-07T08:57:51.124Z,15.20
2023-03-07T09:00:18.992Z,15.40
2023-03-07T09:02:46.672Z,16.00
2023-03-07T09:05:14.046Z,16.20
2023-03-07T09:07:42.461Z,16.00
2023-03-07T09:10:11.671Z,16.00
2023-03-07T09:12:39.078Z,16.20
2023-03-07T09:15:06.971Z,16.80
2023-03-07T09:17:34.376Z,17.20
2023-03-07T09:20:01.796Z,17.60
2023-03-07T09:22:29.240Z,17.80
2023-03-07T09:24:56.955Z,18.20
2023-03-07T09:27:24.758Z,18.50
2023-03-07T09:29:52.180Z,18.50
2023-03-07T09:32:19.615Z,18.10
2023-03-07T09:34:47.041Z,17.50
2023-03-07T09:37:14.993Z,17.30
2023-03-07T09:39:42.460Z,17.60
2023-03-07T09:42:19.211Z,17.90
2023-03-07T09:44:55.457Z,18.70
2023-03-07T09:48:26.035Z,19.80
2023-03-07T09:51:15.587Z,21.10
2023-03-07T09:53:50.715Z,22.00
2023-03-07T09:56:35.941Z,21.70
2023-03-07T09:59:22.698Z,21.10
2023-03-07T10:02:10.999Z,21.90
2023-03-07T10:05:00.958Z,22.50
2023-03-07T10:07:29.530Z,22.40
2023-03-07T10:10:12.246Z,22.60
2023-03-07T10:13:17.084Z,23.00
2023-03-07T10:15:57.808Z,23.30
2023-03-07T10:18:44.106Z,23.30
2023-03-07T10:21:42.205Z,22.30
2023-03-07T10:24:48.212Z,21.90
2023-03-07T10:27:16.571Z,21.60
2023-03-07T10:29:49.251Z,21.00
2023-03-07T10:32:39.536Z,20.80
2023-03-07T10:35:15.692Z,20.50
2023-03-07T10:38:05.220Z,20.20
2023-03-07T10:40:40.099Z,20.40
2023-03-07T10:43:23.156Z,20.20
2023-03-07T10:45:59.149Z,20.40
2023-03-07T10:48:28.143Z,20.50
2023-03-07T10:51:06.037Z,20.40
2023-03-07T10:53:36.703Z,20.80
2023-03-07T10:56:14.580Z,21.00
2023-03-07T10:59:03.937Z,20.90
2023-03-07T11:01:33.763Z,20.90
2023-03-07T11:04:06.281Z,21.20
2023-03-07T11:06:51.884Z,21.60
2023-03-07T11:09:35.546Z,21.70
2023-03-07T11:12:05.855Z,20.90
2023-03-07T11:14:52.548Z,20.20
2023-03-07T11:17:27.297Z,19.50
2023-03-07T11:19:55.960Z,19.20
2023-03-07T11:22:35.758Z,19.00
2023-03-07T11:25:29.516Z,18.70
2023-03-07T11:27:58.552Z,18.60
2023-03-07T11:30:30.505Z,18.50
2023-03-07T11:33:16.714Z,18.20
2023-03-07T11:36:06.861Z,18.20
2023-03-07T11:38:46.033Z,17.60
2023-03-07T11:41:35.962Z,17.80
2023-03-07T11:44:25.379Z,17.90
2023-03-07T11:47:13.745Z,17.80
2023-03-07T11:49:55.669Z,17.90
2023-03-07T11:52:42.709Z,18.00
2023-03-07T11:55:43.977Z,17.90
2023-03-07T11:58:26.221Z,17.70
2023-03-07T12:00:59.361Z,17.60
2023-03-07T12:04:01.603Z,17.50
2023-03-07T12:06:50.062Z,17.70
2023-03-07T12:09:35.972Z,18.10
2023-03-07T12:12:16.906Z,18.50
2023-03-07T12:15:20.744Z,18.80
2023-03-07T12:18:20.037Z,18.90
2023-03-07T12:21:05.918Z,18.50
2023-03-07T12:23:42.365Z,18.20
2023-03-07T12:26:25.633Z,18.20
2023-03-07T12:29:00.964Z,18.20
2023-03-07T12:31:33.589Z,18.20
2023-03-07T12:34:10.048Z,18.10
2023-03-07T12:37:02.592Z,17.90
2023-03-07T12:40:03.618Z,17.70
2023-03-07T12:42:33.800Z,17.60
2023-03-07T12:45:20.133Z,17.60
2023-03-07T12:47:59.829Z,17.60
2023-03-07T12:50:34.191Z,17.60
2023-03-07T12:53:27.152Z,17.20
2023-03-07T12:56:15.425Z,17.40
2023-03-07T12:59:15.924Z,17.40
2023-03-07T13:01:52.710Z,17.60
2023-03-07T13:04:30.202Z,17.60
2023-03-07T13:07:18.658Z,17.90
2023-03-07T13:09:48.867Z,17.90
2023-03-07T13:12:16.461Z,17.70
2023-03-07T13:14:45.775Z,17.40
2023-03-07T13:17:35.265Z,17.50
2023-03-07T13:20:05.117Z,17.80
2023-03-07T13:22:32.483Z,17.90
2023-03-07T13:25:29.649Z,18.00
2023-03-07T13:28:02.525Z,18.00
2023-03-07T13:30:33.477Z,17.90
2023-03-07T13:33:25.135Z,17.80
2023-03-07T13:35:58.222Z,17.70
2023-03-07T13:38:33.730Z,17.60
2023-03-07T13:41:05.668Z,17.70
2023-03-07T13:43:53.032Z,17.80
2023-03-07T13:46:38.789Z,17.80
2023-03-07T13:49:07.496Z,17.80
2023-03-07T13:51:34.890Z,17.50
2023-03-07T13:54:04.587Z,17.30
2023-03-07T13:56:39.468Z,17.40
2023-03-07T13:59:12.655Z,17.50
2023-03-07T14:01:42.812Z,17.50
2023-03-07T14:04:37.002Z,17.50
2023-03-07T14:07:22.358Z,17.50
2023-03-07T14:09:55.878Z,17.60
2023-03-07T14:12:45.880Z,17.60
2023-03-07T14:15:21.924Z,17.70
2023-03-07T14:18:14.430Z,17.60
2023-03-07T14:21:01.003Z,17.50
2023-03-07T14:23:34.978Z,17.60
2023-03-07T14:26:21.388Z,17.60
2023-03-07T14:28:50.348Z,17.60
2023-03-07T14:31:25.395Z,17.70
2023-03-07T14:33:53.582Z,17.80
2023-03-07T14:36:30.937Z,17.90
2023-03-07T14:39:04.348Z,17.90
2023-03-07T14:42:13.731Z,17.70
2023-03-07T14:45:20.030Z,17.60
2023-03-07T14:48:05.577Z,17.50
2023-03-07T14:50:34.037Z,17.40
2023-03-07T14:53:12.065Z,17.10
2023-03-07T14:55:42.972Z,16.90
2023-03-07T14:58:23.569Z,16.80
2023-03-07T15:01:01.091Z,16.70
2023-03-07T15:03:29.842Z,16.70
2023-03-07T15:05:59.865Z,16.70
2023-03-07T15:08:29.965Z,16.70
2023-03-07T15:11:38.267Z,16.60
2023-03-07T15:14:12.255Z,16.50
2023-03-07T15:16:48.402Z,16.40
2023-03-07T15:19:43.190Z,16.30
2023-03-07T15:22:25.416Z,16.30
2023-03-07T15:24:53.187Z,16.30
2023-03-07T15:27:28.597Z,16.20
2023-03-07T15:29:56.712Z,16.20
2023-03-07T15:32:39.085Z,16.00
2023-03-07T15:35:09.707Z,15.90
2023-03-07T15:38:13.884Z,15.90
2023-03-07T15:40:42.219Z,15.90
2023-03-07T15:43:21.576Z,15.90
2023-03-07T15:46:19.051Z,15.90
2023-03-07T15:48:52.325Z,15.90
2023-03-07T15:51:23.890Z,15.80
2023-03-07T15:54:04.349Z,15.70
2023-03-07T15:56:36.938Z,15.60
2023-03-07T15:59:15.523Z,15.50
2023-03-07T16:01:43.318Z,15.50
2023-03-07T16:04:37.364Z,15.50
2023-03-07T16:07:06.395Z,15.50
2023-03-07T16:09:33.808Z,15.40
2023-03-07T16:12:05.575Z,15.40
2023-03-07T16:14:33.680Z,15.40
2023-03-07T16:17:29.771Z,15.30
2023-03-07T16:19:57.457Z,15.20
2023-03-07T16:22:26.144Z,15.20
2023-03-07T16:24:53.579Z,15.00
2023-03-07T16:27:23.598Z,14.90
2023-03-07T16:29:53.201Z,14.90
2023-03-07T16:32:22.669Z,14.80
2023-03-07T16:34:50.831Z,14.70
2023-03-07T16:37:18.510Z,14.70
2023-03-07T16:39:45.949Z,14.50
2023-03-07T16:42:21.335Z,14.40
2023-03-07T16:44:51.160Z,14.40
2023-03-07T16:47:18.908Z,14.40
2023-03-07T16:49:50.935Z,14.40
2023-03-07T16:52:18.463Z,14.30
2023-03-07T16:54:45.872Z,14.20
2023-03-07T16:57:16.534Z,14.10
2023-03-07T16:59:46.969Z,14.10
2023-03-07T17:02:19.219Z,14.10
2023-03-07T17:04:47.174Z,14.10
2023-03-07T17:07:20.339Z,14.10
2023-03-07T17:09:48.310Z,14.00
2023-03-07T17:12:16.423Z,14.00
2023-03-07T17:14:45.276Z,13.90
2023-03-07T17:17:19.607Z,13.80
2023-03-07T17:19:47.094Z,13.80
2023-03-07T17:22:14.469Z,13.80
2023-03-07T17:24:41.878Z,13.80
2023-03-07T17:27:09.505Z,13.70
2023-03-07T17:29:43.681Z,13.60
2023-03-07T17:32:11.625Z,13.60
2023-03-07T17:34:39.282Z,13.60
2023-03-07T17:37:07.241Z,13.50
2023-03-07T17:39:35.101Z,13.50
2023-03-07T17:42:03.506Z,13.50
2023-03-07T17:44:31.622Z,13.40
2023-03-07T17:46:59.436Z,13.40
2023-03-07T17:49:35.861Z,13.30
2023-03-07T17:52:05.238Z,13.20
2023-03-07T17:54:33.287Z,13.10
2023-03-07T17:57:01.726Z,13.10
2023-03-07T17:59:32.306Z,13.00
2023-03-07T18:01:59.770Z,12.90
2023-03-07T18:04:30.998Z,12.90
2023-03-07T18:06:59.603Z,12.80
2023-03-07T18:09:27.326Z,12.80
2023-03-07T18:11:54.754Z,12.70
2023-03-07T18:14:22.728Z,12.70
2023-03-07T18:16:50.766Z,12.70
2023-03-07T18:19:26.203Z,12.60
2023-03-07T18:21:55.527Z,12.50
2023-03-07T18:24:30.218Z,12.40
2023-03-07T18:27:03.257Z,12.40
2023-03-07T18:29:31.124Z,12.30
2023-03-07T18:31:58.543Z,12.20
2023-03-07T18:34:25.968Z,12.10
2023-03-07T18:36:54.375Z,12.10
2023-03-07T18:39:23.178Z,12.10
2023-03-07T18:41:51.044Z,12.10
2023-03-07T18:44:19.684Z,12.10
2023-03-07T18:46:47.298Z,12.00
2023-03-07T18:49:14.917Z,12.00
2023-03-07T18:51:45.715Z,12.00
2023-03-07T18:54:14.079Z,11.90
2023-03-07T18:56:42.724Z,11.90
2023-03-07T18:59:10.303Z,11.90
2023-03-07T19:01:39.636Z,11.90
2023-03-07T19:04:08.218Z,11.90
2023-03-07T19:06:39.230Z,11.90
2023-03-07T19:09:13.814Z,11.80
2023-03-07T19:11:41.204Z,11.80
2023-03-07T19:14:08.542Z,11.80
2023-03-07T19:16:36.132Z,11.70
2023-03-07T19:19:03.786Z,11.70
2023-03-07T19:21:32.078Z,11.60
2023-03-07T19:24:01.592Z,11.60
2023-03-07T19:26:29.378Z,11.50
2023-03-07T19:28:57.558Z,11.50
2023-03-07T19:31:27.728Z,11.50
2023-03-07T19:33:55.951Z,11.40
2023-03-07T19:36:27.342Z,11.30
2023-03-07T19:38:57.130Z,11.30
2023-03-07T19:41:26.062Z,11.20
2023-03-07T19:43:55.018Z,11.20
2023-03-07T19:46:22.685Z,11.10
2023-03-07T19:48:50.599Z,11.00
2023-03-07T19:51:26.149Z,10.90
2023-03-07T19:53:56.946Z,10.90
2023-03-07T19:56:27.712Z,10.80
2023-03-07T19:58:56.143Z,10.70
2023-03-07T20:01:24.760Z,10.70
2023-03-07T20:03:53.417Z,10.70
2023-03-07T20:06:27.194Z,10.70
2023-03-07T20:08:55.862Z,10.70
2023-03-07T20:11:28.119Z,10.60
2023-03-07T20:13:56.171Z,10.70
2023-03-07T20:16:25.059Z,10.70
2023-03-07T20:18:53.914Z,10.60
2023-03-07T20:21:25.707Z,10.40
2023-03-07T20:23:59.148Z,10.30
2023-03-07T20:26:35.574Z,10.20
2023-03-07T20:29:05.605Z,10.10
2023-03-07T20:31:33.872Z,10.10
2023-03-07T20:34:01.320Z,10.00
2023-03-07T20:36:33.991Z,9.90
2023-03-07T20:39:04.161Z,9.90
2023-03-07T20:41:33.096Z,9.90
2023-03-07T20:44:03.873Z,9.80
2023-03-07T20:46:32.203Z,9.80
2023-03-07T20:49:01.185Z,9.80
2023-03-07T20:51:31.798Z,9.60
2023-03-07T20:54:07.941Z,9.70
2023-03-07T20:56:37.463Z,9.70
2023-03-07T20:59:06.040Z,9.70
2023-03-07T21:01:34.583Z,9.60
2023-03-07T21:04:10.960Z,9.60
2023-03-07T21:06:43.132Z,9.70
2023-03-07T21:09:12.189Z,9.80
2023-03-07T21:11:45.145Z,9.70
2023-03-07T21:14:13.679Z,9.60
2023-03-07T21:16:41.321Z,9.50
2023-03-07T21:19:09.348Z,9.50
2023-03-07T21:21:37.597Z,9.50
2023-03-07T21:24:06.573Z,9.50
2023-03-07T21:26:36.250Z,9.50
2023-03-07T21:29:04.674Z,9.50
2023-03-07T21:31:34.104Z,9.40
2023-03-07T21:34:04.286Z,9.40
2023-03-07T21:36:31.949Z,9.40
2023-03-07T21:39:00.113Z,9.30
2023-03-07T21:41:27.648Z,9.30
2023-03-07T21:43:56.244Z,9.30
2023-03-07T21:46:24.391Z,9.30
2023-03-07T21:48:52.187Z,9.30
2023-03-07T21:51:19.957Z,9.30
2023-03-07T21:53:47.455Z,9.30
2023-03-07T21:56:17.226Z,9.40
2023-03-07T21:58:48.514Z,9.50
2023-03-07T22:01:28.043Z,9.60
2023-03-07T22:03:57.107Z,9.60
2023-03-07T22:06:25.439Z,9.60
2023-03-07T22:08:52.914Z,9.60
2023-03-07T22:11:20.517Z,9.70
2023-03-07T22:13:48.000Z,9.70
2023-03-07T22:16:23.189Z,9.70
2023-03-07T22:18:57.348Z,9.80
2023-03-07T22:21:27.872Z,9.80
2023-03-07T22:24:01.010Z,9.90
2023-03-07T22:26:30.650Z,9.80
2023-03-07T22:28:58.628Z,9.80
2023-03-07T22:31:26.526Z,9.70
2023-03-07T22:33:53.998Z,9.60
2023-03-07T22:36:21.649Z,9.60
2023-03-07T22:38:54.926Z,9.60
2023-03-07T22:41:23.390Z,9.60
2023-03-07T22:43:52.465Z,9.60
2023-03-07T22:46:20.291Z,9.60
2023-03-07T22:48:51.172Z,9.60
2023-03-07T22:51:18.595Z,9.50
2023-03-07T22:53:46.415Z,9.60
2023-03-07T22:56:24.890Z,9.70
2023-03-07T22:58:52.957Z,9.70
2023-03-07T23:01:23.245Z,9.80
2023-03-07T23:03:52.410Z,9.80
2023-03-07T23:06:20.951Z,9.80
2023-03-07T23:08:51.043Z,9.80
2023-03-07T23:11:22.647Z,9.80
2023-03-07T23:13:50.761Z,9.80
2023-03-07T23:16:20.890Z,9.80
2023-03-07T23:18:51.727Z,9.80
2023-03-07T23:21:22.859Z,9.70
2023-03-07T23:23:52.871Z,9.70
2023-03-07T23:26:32.080Z,9.70
2023-03-07T23:29:00.365Z,9.70
2023-03-07T23:31:30.808Z,9.70
2023-03-07T23:34:00.691Z,9.60
2023-03-07T23:36:29.837Z,9.60
2023-03-07T23:38:58.460Z,9.60
2023-03-07T23:41:26.756Z,9.50
2023-03-07T23:43:57.242Z,9.50
2023-03-07T23:46:25.600Z,9.40
2023-03-07T23:48:53.828Z,9.30
2023-03-07T23:51:22.131Z,9.10
2023-03-07T23:53:49.878Z,9.10
2023-03-07T23:56:17.330Z,9.10
2023-03-07T23:58:47.447Z,9.00
